UAL1296 KEWR-KRDU
Flight info
| Callsign | UAL1296 |
|---|---|
| Flight time | 1h 14m |
| Altitude | 32000 |
| Route | ELVAE NECCK WHITE Q409 VILLS NALES Q141 HOUKY TAQLE3 |
| Aircraft | B739/M-SDE2E3FGHIRWXY/LB1 |
Departure
| Time | 2026-05-07 01:49 |
|---|---|
| Airport | Newark Liberty International Airport (KEWR) |
Arrival
| Time | 2026-05-07 03:04 |
|---|---|
| Airport | Raleigh-Durham International Airport (KRDU) |
| Time | Latitude | Longitude | Altitude | Speed | Heading |
|---|---|---|---|---|---|
| 2026-05-07 01:26 | 40.68425 | -74.18233 | 23 ft | 0 kts | 214° |
| 2026-05-07 01:39 | 40.68431 | -74.18228 | 21 ft | 4 kts | 214° |
| 2026-05-07 01:39 | 40.68450 | -74.18211 | 22 ft | 3 kts | 214° |
| 2026-05-07 01:39 | 40.68472 | -74.18196 | 21 ft | 4 kts | 180° |
| 2026-05-07 01:39 | 40.68492 | -74.18207 | 21 ft | 4 kts | 117° |
| 2026-05-07 01:40 | 40.68498 | -74.18239 | 21 ft | 4 kts | 95° |
| 2026-05-07 01:40 | 40.68499 | -74.18254 | 21 ft | 0 kts | 95° |
| 2026-05-07 01:43 | 40.68499 | -74.18208 | 21 ft | 11 kts | 84° |
| 2026-05-07 01:43 | 40.68547 | -74.18127 | 21 ft | 11 kts | 49° |
| 2026-05-07 01:43 | 40.68572 | -74.18033 | 21 ft | 11 kts | 95° |
| 2026-05-07 01:43 | 40.68547 | -74.17937 | 21 ft | 11 kts | 113° |
| 2026-05-07 01:44 | 40.68509 | -74.17828 | 21 ft | 20 kts | 115° |
| 2026-05-07 01:44 | 40.68449 | -74.17671 | 21 ft | 13 kts | 115° |
| 2026-05-07 01:44 | 40.68428 | -74.17565 | 22 ft | 12 kts | 69° |
| 2026-05-07 01:44 | 40.68441 | -74.17541 | 22 ft | 0 kts | 41° |
| 2026-05-07 01:45 | 40.68445 | -74.17536 | 22 ft | 5 kts | 40° |
| 2026-05-07 01:45 | 40.68501 | -74.17492 | 23 ft | 21 kts | 24° |
| 2026-05-07 01:46 | 40.68644 | -74.17407 | 22 ft | 23 kts | 25° |
| 2026-05-07 01:46 | 40.68785 | -74.17322 | 22 ft | 22 kts | 25° |
| 2026-05-07 01:46 | 40.68920 | -74.17235 | 22 ft | 21 kts | 27° |
| 2026-05-07 01:46 | 40.69049 | -74.17146 | 20 ft | 21 kts | 27° |
| 2026-05-07 01:47 | 40.69183 | -74.17061 | 21 ft | 24 kts | 25° |
| 2026-05-07 01:47 | 40.69341 | -74.16962 | 22 ft | 26 kts | 25° |
| 2026-05-07 01:47 | 40.69515 | -74.16850 | 21 ft | 27 kts | 26° |
| 2026-05-07 01:47 | 40.69680 | -74.16743 | 22 ft | 26 kts | 25° |
| 2026-05-07 01:48 | 40.69837 | -74.16648 | 20 ft | 24 kts | 26° |
| 2026-05-07 01:48 | 40.69981 | -74.16556 | 20 ft | 22 kts | 25° |
| 2026-05-07 01:48 | 40.70059 | -74.16490 | 20 ft | 9 kts | 62° |
| 2026-05-07 01:48 | 40.70051 | -74.16409 | 20 ft | 9 kts | 125° |
| 2026-05-07 01:49 | 40.69951 | -74.16412 | 19 ft | 31 kts | 203° |
| 2026-05-07 01:49 | 40.69504 | -74.16687 | 24 ft | 109 kts | 208° |
| 2026-05-07 01:49 | 40.68630 | -74.17265 | 48 ft | 166 kts | 209° |
| 2026-05-07 01:49 | 40.67550 | -74.17936 | 632 ft | 173 kts | 209° |
| 2026-05-07 01:50 | 40.66490 | -74.18456 | 1771 ft | 155 kts | 199° |
| 2026-05-07 01:50 | 40.65501 | -74.19040 | 2321 ft | 164 kts | 224° |
| 2026-05-07 01:50 | 40.64487 | -74.20006 | 2511 ft | 202 kts | 217° |
| 2026-05-07 01:50 | 40.63185 | -74.21026 | 2845 ft | 224 kts | 212° |
| 2026-05-07 01:51 | 40.61838 | -74.22045 | 3620 ft | 230 kts | 213° |
| 2026-05-07 01:51 | 40.60396 | -74.23147 | 4202 ft | 246 kts | 213° |
| 2026-05-07 01:51 | 40.58914 | -74.24282 | 5207 ft | 245 kts | 213° |
| 2026-05-07 01:51 | 40.57378 | -74.25470 | 5760 ft | 266 kts | 213° |
| 2026-05-07 01:52 | 40.55701 | -74.26659 | 5966 ft | 278 kts | 203° |
| 2026-05-07 01:52 | 40.54424 | -74.26965 | 6020 ft | 276 kts | 186° |
| 2026-05-07 01:52 | 40.52544 | -74.26634 | 6000 ft | 279 kts | 168° |
| 2026-05-07 01:52 | 40.50713 | -74.25743 | 6017 ft | 277 kts | 164° |
| 2026-05-07 01:53 | 40.48908 | -74.24821 | 6018 ft | 279 kts | 164° |
| 2026-05-07 01:53 | 40.47104 | -74.23910 | 6007 ft | 279 kts | 164° |
| 2026-05-07 01:53 | 40.45289 | -74.22992 | 6014 ft | 280 kts | 165° |
| 2026-05-07 01:53 | 40.43487 | -74.22112 | 6119 ft | 280 kts | 165° |
| 2026-05-07 01:54 | 40.41665 | -74.21199 | 6767 ft | 281 kts | 165° |
| 2026-05-07 01:54 | 40.39832 | -74.20281 | 7519 ft | 283 kts | 165° |
| 2026-05-07 01:54 | 40.37978 | -74.19359 | 8198 ft | 287 kts | 165° |
| 2026-05-07 01:54 | 40.36100 | -74.18427 | 8914 ft | 290 kts | 165° |
| 2026-05-07 01:55 | 40.34203 | -74.17489 | 9597 ft | 293 kts | 166° |
| 2026-05-07 01:55 | 40.32278 | -74.16565 | 10279 ft | 294 kts | 171° |
| 2026-05-07 01:55 | 40.30239 | -74.16250 | 10490 ft | 300 kts | 192° |
| 2026-05-07 01:55 | 40.28130 | -74.16786 | 10473 ft | 320 kts | 199° |
| 2026-05-07 01:56 | 40.25903 | -74.17522 | 10476 ft | 339 kts | 202° |
| 2026-05-07 01:56 | 40.23577 | -74.18232 | 10453 ft | 350 kts | 189° |
| 2026-05-07 01:56 | 40.21124 | -74.17893 | 10470 ft | 362 kts | 172° |
| 2026-05-07 01:56 | 40.18688 | -74.16970 | 10463 ft | 365 kts | 169° |
| 2026-05-07 01:57 | 40.16263 | -74.15957 | 10456 ft | 367 kts | 168° |
| 2026-05-07 01:57 | 40.13811 | -74.14906 | 10849 ft | 371 kts | 168° |
| 2026-05-07 01:57 | 40.11393 | -74.13962 | 11596 ft | 366 kts | 171° |
| 2026-05-07 01:57 | 40.08929 | -74.13110 | 12271 ft | 367 kts | 173° |
| 2026-05-07 01:58 | 40.06459 | -74.12265 | 12870 ft | 370 kts | 173° |
| 2026-05-07 01:58 | 40.03949 | -74.11406 | 13388 ft | 375 kts | 173° |
| 2026-05-07 01:58 | 40.01420 | -74.10449 | 13957 ft | 385 kts | 165° |
| 2026-05-07 01:58 | 39.99074 | -74.08593 | 14491 ft | 407 kts | 145° |
| 2026-05-07 01:59 | 39.97221 | -74.05731 | 15062 ft | 424 kts | 126° |
| 2026-05-07 01:59 | 39.96078 | -74.02131 | 15612 ft | 437 kts | 106° |
| 2026-05-07 01:59 | 39.95749 | -73.98156 | 16173 ft | 444 kts | 94° |
| 2026-05-07 01:59 | 39.95292 | -73.94194 | 16683 ft | 443 kts | 111° |
| 2026-05-07 02:00 | 39.93973 | -73.90605 | 17181 ft | 438 kts | 130° |
| 2026-05-07 02:00 | 39.91919 | -73.87727 | 17683 ft | 429 kts | 148° |
| 2026-05-07 02:00 | 39.89373 | -73.85847 | 18150 ft | 419 kts | 167° |
| 2026-05-07 02:00 | 39.86572 | -73.85097 | 18607 ft | 406 kts | 186° |
| 2026-05-07 02:01 | 39.83824 | -73.85536 | 19108 ft | 392 kts | 204° |
| 2026-05-07 02:01 | 39.81429 | -73.87068 | 19629 ft | 379 kts | 223° |
| 2026-05-07 02:01 | 39.79641 | -73.89483 | 20142 ft | 369 kts | 241° |
| 2026-05-07 02:01 | 39.78576 | -73.92478 | 20677 ft | 364 kts | 253° |
| 2026-05-07 02:02 | 39.77863 | -73.95630 | 21193 ft | 364 kts | 256° |
| 2026-05-07 02:02 | 39.77220 | -73.98830 | 21650 ft | 366 kts | 257° |
| 2026-05-07 02:02 | 39.76598 | -74.02032 | 22118 ft | 366 kts | 257° |
| 2026-05-07 02:02 | 39.75981 | -74.05255 | 22618 ft | 367 kts | 257° |
| 2026-05-07 02:03 | 39.75370 | -74.08458 | 23107 ft | 366 kts | 257° |
| 2026-05-07 02:03 | 39.74756 | -74.11678 | 23475 ft | 368 kts | 258° |
| 2026-05-07 02:03 | 39.74144 | -74.14914 | 23879 ft | 369 kts | 258° |
| 2026-05-07 02:03 | 39.73529 | -74.18152 | 24288 ft | 369 kts | 258° |
| 2026-05-07 02:04 | 39.72911 | -74.21397 | 24627 ft | 371 kts | 258° |
| 2026-05-07 02:04 | 39.72290 | -74.24664 | 24956 ft | 373 kts | 258° |
| 2026-05-07 02:04 | 39.71669 | -74.27951 | 25282 ft | 376 kts | 258° |
| 2026-05-07 02:04 | 39.71042 | -74.31258 | 25638 ft | 377 kts | 258° |
| 2026-05-07 02:05 | 39.70416 | -74.34528 | 25952 ft | 379 kts | 258° |
| 2026-05-07 02:05 | 39.69779 | -74.37859 | 26248 ft | 381 kts | 258° |
| 2026-05-07 02:05 | 39.69141 | -74.41196 | 26584 ft | 382 kts | 258° |
| 2026-05-07 02:05 | 39.68499 | -74.44546 | 27034 ft | 380 kts | 258° |
| 2026-05-07 02:06 | 39.67867 | -74.47859 | 27570 ft | 377 kts | 258° |
| 2026-05-07 02:06 | 39.67242 | -74.51152 | 27851 ft | 376 kts | 258° |
| 2026-05-07 02:06 | 39.66618 | -74.54452 | 27880 ft | 376 kts | 258° |
| 2026-05-07 02:06 | 39.65996 | -74.57749 | 27878 ft | 377 kts | 258° |
| 2026-05-07 02:07 | 39.65373 | -74.61055 | 27889 ft | 376 kts | 257° |
| 2026-05-07 02:07 | 39.62996 | -74.67113 | 27895 ft | 385 kts | 238° |
| 2026-05-07 02:07 | 39.61292 | -74.69816 | 27887 ft | 389 kts | 233° |
| 2026-05-07 02:08 | 39.59388 | -74.72320 | 27896 ft | 390 kts | 232° |
| 2026-05-07 02:08 | 39.57470 | -74.74821 | 27885 ft | 391 kts | 232° |
| 2026-05-07 02:08 | 39.55557 | -74.77329 | 27913 ft | 394 kts | 232° |
| 2026-05-07 02:08 | 39.53628 | -74.79868 | 28267 ft | 394 kts | 232° |
| 2026-05-07 02:09 | 39.51715 | -74.82383 | 28788 ft | 390 kts | 232° |
| 2026-05-07 02:09 | 39.49821 | -74.84873 | 29378 ft | 386 kts | 232° |
| 2026-05-07 02:09 | 39.47950 | -74.87332 | 29818 ft | 382 kts | 232° |
| 2026-05-07 02:09 | 39.46095 | -74.89774 | 29850 ft | 382 kts | 232° |
| 2026-05-07 02:10 | 39.42359 | -74.94689 | 29885 ft | 384 kts | 232° |
| 2026-05-07 02:10 | 39.40478 | -74.97163 | 30090 ft | 387 kts | 232° |
| 2026-05-07 02:10 | 39.38591 | -74.99639 | 30563 ft | 385 kts | 232° |
| 2026-05-07 02:11 | 39.36725 | -75.02080 | 31133 ft | 380 kts | 233° |
| 2026-05-07 02:11 | 39.34851 | -75.04535 | 31062 ft | 385 kts | 233° |
| 2026-05-07 02:11 | 39.31098 | -75.09446 | 31376 ft | 384 kts | 233° |
| 2026-05-07 02:12 | 39.29259 | -75.11846 | 31853 ft | 380 kts | 233° |
| 2026-05-07 02:12 | 39.27399 | -75.14273 | 31856 ft | 381 kts | 233° |
| 2026-05-07 02:12 | 39.23663 | -75.19144 | 31889 ft | 379 kts | 233° |
| 2026-05-07 02:13 | 39.19928 | -75.24018 | 31904 ft | 388 kts | 233° |
| 2026-05-07 02:13 | 39.16082 | -75.29022 | 31908 ft | 397 kts | 233° |
| 2026-05-07 02:14 | 39.12159 | -75.34112 | 31898 ft | 403 kts | 233° |
| 2026-05-07 02:14 | 39.08191 | -75.39248 | 31888 ft | 405 kts | 233° |
| 2026-05-07 02:15 | 39.04212 | -75.44388 | 31886 ft | 406 kts | 233° |
| 2026-05-07 02:15 | 39.00229 | -75.49529 | 31886 ft | 406 kts | 233° |
| 2026-05-07 02:16 | 38.96240 | -75.54670 | 31867 ft | 402 kts | 233° |
| 2026-05-07 02:16 | 38.94284 | -75.57185 | 31450 ft | 395 kts | 233° |
| 2026-05-07 02:16 | 38.92344 | -75.59681 | 30604 ft | 395 kts | 233° |
| 2026-05-07 02:17 | 38.90413 | -75.62218 | 29515 ft | 399 kts | 234° |
| 2026-05-07 02:17 | 38.88676 | -75.65007 | 28245 ft | 402 kts | 240° |
| 2026-05-07 02:17 | 38.87226 | -75.68089 | 26892 ft | 407 kts | 245° |
| 2026-05-07 02:17 | 38.85830 | -75.71263 | 26255 ft | 401 kts | 245° |
| 2026-05-07 02:18 | 38.84451 | -75.74358 | 26113 ft | 403 kts | 244° |
| 2026-05-07 02:18 | 38.83062 | -75.77461 | 25994 ft | 409 kts | 244° |
| 2026-05-07 02:18 | 38.81633 | -75.80638 | 25923 ft | 413 kts | 244° |
| 2026-05-07 02:18 | 38.80190 | -75.83834 | 25901 ft | 416 kts | 244° |
| 2026-05-07 02:19 | 38.78737 | -75.87053 | 25896 ft | 418 kts | 244° |
| 2026-05-07 02:19 | 38.77277 | -75.90282 | 25893 ft | 419 kts | 244° |
| 2026-05-07 02:19 | 38.75816 | -75.93507 | 25891 ft | 420 kts | 244° |
| 2026-05-07 02:19 | 38.74163 | -75.96631 | 25894 ft | 426 kts | 237° |
| 2026-05-07 02:20 | 38.72196 | -75.99496 | 25902 ft | 431 kts | 231° |
| 2026-05-07 02:20 | 38.69942 | -76.02083 | 25894 ft | 438 kts | 224° |
| 2026-05-07 02:20 | 38.67504 | -76.04424 | 25897 ft | 439 kts | 224° |
| 2026-05-07 02:20 | 38.65056 | -76.06767 | 25894 ft | 437 kts | 224° |
| 2026-05-07 02:21 | 38.62670 | -76.09050 | 25876 ft | 418 kts | 224° |
| 2026-05-07 02:21 | 38.60402 | -76.11221 | 25880 ft | 399 kts | 225° |
| 2026-05-07 02:21 | 38.58200 | -76.13350 | 25885 ft | 395 kts | 225° |
| 2026-05-07 02:21 | 38.56010 | -76.15480 | 25898 ft | 396 kts | 225° |
| 2026-05-07 02:22 | 38.53817 | -76.17618 | 25912 ft | 397 kts | 225° |
| 2026-05-07 02:22 | 38.51610 | -76.19765 | 25902 ft | 398 kts | 225° |
| 2026-05-07 02:22 | 38.49401 | -76.21909 | 25907 ft | 399 kts | 225° |
| 2026-05-07 02:22 | 38.47185 | -76.24056 | 25896 ft | 400 kts | 225° |
| 2026-05-07 02:23 | 38.44965 | -76.26203 | 25900 ft | 401 kts | 225° |
| 2026-05-07 02:23 | 38.42770 | -76.28323 | 25902 ft | 401 kts | 224° |
| 2026-05-07 02:23 | 38.40544 | -76.30473 | 25898 ft | 401 kts | 224° |
| 2026-05-07 02:23 | 38.38322 | -76.32616 | 25895 ft | 401 kts | 224° |
| 2026-05-07 02:24 | 38.36093 | -76.34764 | 25901 ft | 400 kts | 224° |
| 2026-05-07 02:24 | 38.33877 | -76.36899 | 25896 ft | 400 kts | 224° |
| 2026-05-07 02:24 | 38.31663 | -76.39029 | 25895 ft | 399 kts | 224° |
| 2026-05-07 02:24 | 38.29464 | -76.41179 | 25899 ft | 396 kts | 227° |
| 2026-05-07 02:25 | 38.27497 | -76.43582 | 25901 ft | 389 kts | 233° |
| 2026-05-07 02:25 | 38.25651 | -76.46107 | 25894 ft | 389 kts | 233° |
| 2026-05-07 02:25 | 38.23805 | -76.48620 | 25900 ft | 389 kts | 233° |
| 2026-05-07 02:25 | 38.21954 | -76.51126 | 25901 ft | 389 kts | 233° |
| 2026-05-07 02:26 | 38.20096 | -76.53631 | 25898 ft | 389 kts | 233° |
| 2026-05-07 02:26 | 38.18234 | -76.56133 | 25902 ft | 389 kts | 233° |
| 2026-05-07 02:26 | 38.16374 | -76.58628 | 25895 ft | 389 kts | 233° |
| 2026-05-07 02:26 | 38.14512 | -76.61124 | 25899 ft | 389 kts | 233° |
| 2026-05-07 02:27 | 38.12652 | -76.63615 | 25896 ft | 389 kts | 233° |
| 2026-05-07 02:27 | 38.10813 | -76.66075 | 25898 ft | 389 kts | 233° |
| 2026-05-07 02:27 | 38.08952 | -76.68564 | 25896 ft | 389 kts | 233° |
| 2026-05-07 02:27 | 38.07091 | -76.71050 | 25910 ft | 388 kts | 233° |
| 2026-05-07 02:28 | 38.05228 | -76.73539 | 25910 ft | 388 kts | 233° |
| 2026-05-07 02:28 | 38.03366 | -76.76023 | 25903 ft | 388 kts | 233° |
| 2026-05-07 02:28 | 38.01505 | -76.78503 | 25914 ft | 388 kts | 233° |
| 2026-05-07 02:28 | 37.99637 | -76.80973 | 25917 ft | 389 kts | 231° |
| 2026-05-07 02:29 | 37.97558 | -76.83142 | 25901 ft | 383 kts | 222° |
| 2026-05-07 02:29 | 37.95342 | -76.84911 | 25894 ft | 371 kts | 218° |
| 2026-05-07 02:29 | 37.93058 | -76.86327 | 25901 ft | 361 kts | 212° |
| 2026-05-07 02:29 | 37.90750 | -76.87442 | 25894 ft | 348 kts | 210° |
| 2026-05-07 02:30 | 37.88513 | -76.88432 | 25905 ft | 335 kts | 209° |
| 2026-05-07 02:30 | 37.86317 | -76.89393 | 25768 ft | 334 kts | 210° |
| 2026-05-07 02:30 | 37.84105 | -76.90375 | 25140 ft | 341 kts | 209° |
| 2026-05-07 02:30 | 37.81845 | -76.91388 | 24389 ft | 349 kts | 209° |
| 2026-05-07 02:31 | 37.79541 | -76.92426 | 23719 ft | 354 kts | 209° |
| 2026-05-07 02:31 | 37.77212 | -76.93473 | 23182 ft | 354 kts | 208° |
| 2026-05-07 02:31 | 37.74903 | -76.94507 | 22835 ft | 349 kts | 208° |
| 2026-05-07 02:31 | 37.72654 | -76.95511 | 22763 ft | 338 kts | 209° |
| 2026-05-07 02:32 | 37.70453 | -76.96499 | 22709 ft | 337 kts | 209° |
| 2026-05-07 02:32 | 37.68213 | -76.97516 | 22680 ft | 347 kts | 209° |
| 2026-05-07 02:32 | 37.65924 | -76.98555 | 22622 ft | 353 kts | 208° |
| 2026-05-07 02:32 | 37.63613 | -76.99595 | 22558 ft | 351 kts | 208° |
| 2026-05-07 02:33 | 37.61321 | -77.00623 | 22505 ft | 349 kts | 208° |
| 2026-05-07 02:33 | 37.59037 | -77.01647 | 22454 ft | 347 kts | 208° |
| 2026-05-07 02:33 | 37.56766 | -77.02667 | 22415 ft | 346 kts | 208° |
| 2026-05-07 02:33 | 37.54487 | -77.03691 | 22359 ft | 346 kts | 208° |
| 2026-05-07 02:34 | 37.52223 | -77.04708 | 22317 ft | 345 kts | 208° |
| 2026-05-07 02:34 | 37.49959 | -77.05724 | 22267 ft | 346 kts | 208° |
| 2026-05-07 02:34 | 37.47697 | -77.06740 | 22206 ft | 346 kts | 208° |
| 2026-05-07 02:34 | 37.45430 | -77.07766 | 22177 ft | 346 kts | 208° |
| 2026-05-07 02:35 | 37.43159 | -77.08796 | 22122 ft | 347 kts | 208° |
| 2026-05-07 02:35 | 37.40913 | -77.09814 | 22047 ft | 349 kts | 208° |
| 2026-05-07 02:35 | 37.38618 | -77.10854 | 21951 ft | 351 kts | 208° |
| 2026-05-07 02:35 | 37.36325 | -77.11888 | 21919 ft | 348 kts | 208° |
| 2026-05-07 02:36 | 37.34051 | -77.12912 | 21919 ft | 347 kts | 208° |
| 2026-05-07 02:36 | 37.31805 | -77.14008 | 21796 ft | 347 kts | 212° |
| 2026-05-07 02:36 | 37.29604 | -77.15269 | 21561 ft | 346 kts | 214° |
| 2026-05-07 02:36 | 37.27445 | -77.16557 | 21336 ft | 342 kts | 214° |
| 2026-05-07 02:37 | 37.25304 | -77.17831 | 21124 ft | 339 kts | 213° |
| 2026-05-07 02:37 | 37.23169 | -77.19088 | 20928 ft | 339 kts | 213° |
| 2026-05-07 02:37 | 37.21026 | -77.20335 | 20705 ft | 339 kts | 213° |
| 2026-05-07 02:37 | 37.19612 | -77.21153 | 20568 ft | 338 kts | 213° |
| 2026-05-07 02:38 | 37.17481 | -77.22382 | 20356 ft | 338 kts | 213° |
| 2026-05-07 02:38 | 37.15345 | -77.23631 | 20141 ft | 335 kts | 216° |
| 2026-05-07 02:38 | 37.13330 | -77.25054 | 19935 ft | 331 kts | 219° |
| 2026-05-07 02:38 | 37.11361 | -77.26562 | 19733 ft | 330 kts | 219° |
| 2026-05-07 02:39 | 37.09402 | -77.28056 | 19531 ft | 331 kts | 219° |
| 2026-05-07 02:39 | 37.07422 | -77.29537 | 19323 ft | 331 kts | 219° |
| 2026-05-07 02:39 | 37.05434 | -77.31005 | 19115 ft | 331 kts | 218° |
| 2026-05-07 02:39 | 37.03449 | -77.32468 | 18909 ft | 331 kts | 218° |
| 2026-05-07 02:40 | 37.01469 | -77.33939 | 18693 ft | 330 kts | 219° |
| 2026-05-07 02:40 | 36.99499 | -77.35408 | 18491 ft | 329 kts | 219° |
| 2026-05-07 02:40 | 36.97537 | -77.36871 | 18289 ft | 328 kts | 219° |
| 2026-05-07 02:40 | 36.95578 | -77.38329 | 18089 ft | 327 kts | 219° |
| 2026-05-07 02:41 | 36.93620 | -77.39786 | 17882 ft | 327 kts | 219° |
| 2026-05-07 02:41 | 36.91670 | -77.41238 | 17682 ft | 326 kts | 219° |
| 2026-05-07 02:41 | 36.89726 | -77.42684 | 17483 ft | 325 kts | 219° |
| 2026-05-07 02:41 | 36.87785 | -77.44126 | 17280 ft | 324 kts | 218° |
| 2026-05-07 02:42 | 36.85849 | -77.45561 | 17077 ft | 324 kts | 218° |
| 2026-05-07 02:42 | 36.83914 | -77.46995 | 16887 ft | 322 kts | 218° |
| 2026-05-07 02:42 | 36.81999 | -77.48411 | 16767 ft | 319 kts | 218° |
| 2026-05-07 02:42 | 36.80087 | -77.49822 | 16570 ft | 319 kts | 218° |
| 2026-05-07 02:43 | 36.78176 | -77.51233 | 16391 ft | 319 kts | 218° |
| 2026-05-07 02:43 | 36.76272 | -77.52638 | 16184 ft | 319 kts | 218° |
| 2026-05-07 02:43 | 36.74362 | -77.54046 | 15984 ft | 319 kts | 218° |
| 2026-05-07 02:43 | 36.72457 | -77.55453 | 15787 ft | 318 kts | 218° |
| 2026-05-07 02:44 | 36.70551 | -77.56860 | 15550 ft | 319 kts | 218° |
| 2026-05-07 02:44 | 36.68666 | -77.58247 | 15344 ft | 319 kts | 218° |
| 2026-05-07 02:44 | 36.66755 | -77.59651 | 15131 ft | 318 kts | 218° |
| 2026-05-07 02:44 | 36.64848 | -77.61052 | 14936 ft | 318 kts | 218° |
| 2026-05-07 02:45 | 36.62942 | -77.62453 | 14731 ft | 317 kts | 217° |
| 2026-05-07 02:45 | 36.61039 | -77.63850 | 14521 ft | 317 kts | 217° |
| 2026-05-07 02:45 | 36.59147 | -77.65242 | 14317 ft | 316 kts | 217° |
| 2026-05-07 02:45 | 36.57252 | -77.66632 | 14116 ft | 315 kts | 217° |
| 2026-05-07 02:46 | 36.55370 | -77.68011 | 13921 ft | 313 kts | 217° |
| 2026-05-07 02:46 | 36.53497 | -77.69386 | 13720 ft | 312 kts | 217° |
| 2026-05-07 02:46 | 36.51701 | -77.70885 | 13522 ft | 307 kts | 226° |
| 2026-05-07 02:46 | 36.50136 | -77.72645 | 13338 ft | 301 kts | 230° |
| 2026-05-07 02:47 | 36.48643 | -77.74468 | 13151 ft | 300 kts | 230° |
| 2026-05-07 02:47 | 36.47187 | -77.76263 | 12975 ft | 299 kts | 230° |
| 2026-05-07 02:47 | 36.45712 | -77.78071 | 12787 ft | 298 kts | 230° |
| 2026-05-07 02:47 | 36.44230 | -77.79863 | 12601 ft | 297 kts | 230° |
| 2026-05-07 02:48 | 36.42727 | -77.81663 | 12407 ft | 296 kts | 229° |
| 2026-05-07 02:48 | 36.41246 | -77.83439 | 12242 ft | 296 kts | 230° |
| 2026-05-07 02:48 | 36.39759 | -77.85217 | 12049 ft | 297 kts | 229° |
| 2026-05-07 02:48 | 36.38285 | -77.86951 | 11868 ft | 295 kts | 229° |
| 2026-05-07 02:49 | 36.36796 | -77.88705 | 11681 ft | 294 kts | 229° |
| 2026-05-07 02:49 | 36.35314 | -77.90456 | 11493 ft | 294 kts | 229° |
| 2026-05-07 02:49 | 36.33836 | -77.92201 | 11313 ft | 293 kts | 228° |
| 2026-05-07 02:49 | 36.32362 | -77.93939 | 11136 ft | 293 kts | 228° |
| 2026-05-07 02:50 | 36.30881 | -77.95685 | 10952 ft | 292 kts | 227° |
| 2026-05-07 02:50 | 36.29418 | -77.97405 | 10778 ft | 290 kts | 227° |
| 2026-05-07 02:50 | 36.27953 | -77.99132 | 10599 ft | 290 kts | 227° |
| 2026-05-07 02:50 | 36.26495 | -78.00846 | 10416 ft | 288 kts | 227° |
| 2026-05-07 02:51 | 36.25055 | -78.02537 | 10225 ft | 281 kts | 226° |
| 2026-05-07 02:51 | 36.23659 | -78.04181 | 10045 ft | 272 kts | 229° |
| 2026-05-07 02:51 | 36.22633 | -78.06067 | 9956 ft | 257 kts | 246° |
| 2026-05-07 02:51 | 36.21897 | -78.08091 | 9483 ft | 261 kts | 246° |
| 2026-05-07 02:52 | 36.21148 | -78.10132 | 9098 ft | 261 kts | 245° |
| 2026-05-07 02:52 | 36.20428 | -78.12166 | 8888 ft | 255 kts | 246° |
| 2026-05-07 02:52 | 36.19758 | -78.14178 | 8680 ft | 250 kts | 246° |
| 2026-05-07 02:52 | 36.19097 | -78.16173 | 8260 ft | 253 kts | 246° |
| 2026-05-07 02:53 | 36.18436 | -78.18165 | 8017 ft | 249 kts | 246° |
| 2026-05-07 02:53 | 36.17785 | -78.20111 | 7835 ft | 241 kts | 246° |
| 2026-05-07 02:53 | 36.17152 | -78.22006 | 7672 ft | 237 kts | 245° |
| 2026-05-07 02:53 | 36.16519 | -78.23885 | 7510 ft | 237 kts | 245° |
| 2026-05-07 02:54 | 36.15882 | -78.25778 | 7362 ft | 239 kts | 245° |
| 2026-05-07 02:54 | 36.15248 | -78.27671 | 7212 ft | 238 kts | 246° |
| 2026-05-07 02:54 | 36.14729 | -78.29611 | 7033 ft | 238 kts | 253° |
| 2026-05-07 02:54 | 36.14384 | -78.31609 | 6876 ft | 238 kts | 255° |
| 2026-05-07 02:55 | 36.14055 | -78.33613 | 6718 ft | 238 kts | 255° |
| 2026-05-07 02:55 | 36.13715 | -78.35621 | 6562 ft | 238 kts | 255° |
| 2026-05-07 02:55 | 36.13371 | -78.37596 | 6394 ft | 232 kts | 254° |
| 2026-05-07 02:55 | 36.13029 | -78.39527 | 6228 ft | 227 kts | 253° |
| 2026-05-07 02:56 | 36.12696 | -78.41408 | 6086 ft | 220 kts | 253° |
| 2026-05-07 02:56 | 36.12289 | -78.43184 | 6000 ft | 208 kts | 242° |
| 2026-05-07 02:56 | 36.11624 | -78.44708 | 5980 ft | 201 kts | 244° |
| 2026-05-07 02:56 | 36.11190 | -78.46384 | 5795 ft | 204 kts | 251° |
| 2026-05-07 02:57 | 36.10800 | -78.48066 | 5656 ft | 202 kts | 248° |
| 2026-05-07 02:57 | 36.10333 | -78.49690 | 5545 ft | 200 kts | 247° |
| 2026-05-07 02:57 | 36.09859 | -78.51305 | 5425 ft | 198 kts | 248° |
| 2026-05-07 02:57 | 36.09383 | -78.52901 | 5323 ft | 199 kts | 248° |
| 2026-05-07 02:58 | 36.08866 | -78.54495 | 5236 ft | 201 kts | 234° |
| 2026-05-07 02:58 | 36.07783 | -78.55582 | 5155 ft | 204 kts | 212° |
| 2026-05-07 02:58 | 36.06620 | -78.56590 | 5030 ft | 204 kts | 222° |
| 2026-05-07 02:58 | 36.05566 | -78.57780 | 4817 ft | 206 kts | 225° |
| 2026-05-07 02:59 | 36.04565 | -78.58996 | 4569 ft | 204 kts | 225° |
| 2026-05-07 02:59 | 36.03550 | -78.60251 | 4295 ft | 203 kts | 225° |
| 2026-05-07 02:59 | 36.02564 | -78.61466 | 4045 ft | 202 kts | 225° |
| 2026-05-07 02:59 | 36.01590 | -78.62673 | 3786 ft | 195 kts | 225° |
| 2026-05-07 03:00 | 36.00635 | -78.63855 | 3511 ft | 188 kts | 225° |
| 2026-05-07 03:00 | 35.99752 | -78.64975 | 3270 ft | 182 kts | 225° |
| 2026-05-07 03:00 | 35.98881 | -78.66039 | 3036 ft | 170 kts | 224° |
| 2026-05-07 03:00 | 35.98076 | -78.67027 | 2820 ft | 158 kts | 225° |
| 2026-05-07 03:01 | 35.97319 | -78.67966 | 2641 ft | 147 kts | 225° |
| 2026-05-07 03:01 | 35.96628 | -78.68822 | 2429 ft | 139 kts | 224° |
| 2026-05-07 03:01 | 35.95942 | -78.69671 | 2243 ft | 140 kts | 224° |
| 2026-05-07 03:01 | 35.95251 | -78.70526 | 2052 ft | 141 kts | 224° |
| 2026-05-07 03:02 | 35.94561 | -78.71381 | 1874 ft | 142 kts | 224° |
| 2026-05-07 03:02 | 35.93860 | -78.72251 | 1684 ft | 144 kts | 225° |
| 2026-05-07 03:02 | 35.93156 | -78.73125 | 1476 ft | 142 kts | 224° |
| 2026-05-07 03:02 | 35.92463 | -78.73984 | 1299 ft | 141 kts | 225° |
| 2026-05-07 03:03 | 35.91772 | -78.74839 | 1113 ft | 141 kts | 225° |
| 2026-05-07 03:03 | 35.91080 | -78.75698 | 931 ft | 140 kts | 225° |
| 2026-05-07 03:03 | 35.90390 | -78.76553 | 749 ft | 140 kts | 225° |
| 2026-05-07 03:03 | 35.89711 | -78.77396 | 564 ft | 139 kts | 225° |
| 2026-05-07 03:04 | 35.89036 | -78.78233 | 425 ft | 131 kts | 225° |
| 2026-05-07 03:04 | 35.88534 | -78.78856 | 428 ft | 72 kts | 225° |
| 2026-05-07 03:04 | 35.88285 | -78.79061 | 425 ft | 34 kts | 168° |
| 2026-05-07 03:04 | 35.88158 | -78.79121 | 426 ft | 19 kts | 225° |
| 2026-05-07 03:05 | 35.88063 | -78.79129 | 418 ft | 16 kts | 118° |
| 2026-05-07 03:05 | 35.88022 | -78.79092 | 415 ft | 8 kts | 157° |
| 2026-05-07 03:05 | 35.87989 | -78.79094 | 424 ft | 0 kts | 211° |